sensor_id;sensor_type;location;lat;lon;timestamp;pressure;altitude;pressure_sealevel;temperature;humidity
61740;BME280;47645;45.288;12.038;2023-05-03T00:04:19;1018.4109148957025;;;13.4697265625;100
61740;BME280;47645;45.288;12.038;2023-05-03T00:14:20;1018.2893389164582;;;13.378125;100
61740;BME280;47645;45.288;12.038;2023-05-03T00:24:21;1018.1830001352114;;;13.189453125;100
61740;BME280;47645;45.288;12.038;2023-05-03T00:34:22;1018.0604095111283;;;13.1181640625;100
61740;BME280;47645;45.288;12.038;2023-05-03T00:44:22;1018.0777699015698;;;13.2353515625;100
61740;BME280;47645;45.288;12.038;2023-05-03T00:54:25;1018.022497452805;;;13.1130859375;100
61740;BME280;47645;45.288;12.038;2023-05-03T01:04:24;1017.9382097617297;;;13.082421875;100
61740;BME280;47645;45.288;12.038;2023-05-03T01:14:34;1017.8031744859456;;;13.1080078125;100
61740;BME280;47645;45.288;12.038;2023-05-03T01:24:27;1017.7582852572938;;;12.9447265625;100
61740;BME280;47645;45.288;12.038;2023-05-03T01:34:35;1017.7768992898747;;;12.965234375;100
61740;BME280;47645;45.288;12.038;2023-05-03T01:44:29;1017.7369298091052;;;12.965234375;100
61740;BME280;47645;45.288;12.038;2023-05-03T01:54:29;1017.7457005130383;;;12.975390625;100
61740;BME280;47645;45.288;12.038;2023-05-03T02:04:30;1017.8004645347376;;;12.985546875;100
61740;BME280;47645;45.288;12.038;2023-05-03T02:14:32;1017.8091819069894;;;13.1435546875;100
61740;BME280;47645;45.288;12.038;2023-05-03T02:24:34;1017.8074824812143;;;13.169140625;100
61740;BME280;47645;45.288;12.038;2023-05-03T02:34:32;1017.7780802922821;;;13.28125;100
61740;BME280;47645;45.288;12.038;2023-05-03T02:44:33;1017.7489780267838;;;13.306640625;100
61740;BME280;47645;45.288;12.038;2023-05-03T02:54:34;1017.797459370888;;;13.383203125;100
61740;BME280;47645;45.288;12.038;2023-05-03T03:04:35;1017.7659129302157;;;13.48515625;100
61740;BME280;47645;45.288;12.038;2023-05-03T03:14:36;1017.7634381585066;;;13.4646484375;100
61740;BME280;47645;45.288;12.038;2023-05-03T03:24:36;1017.8132682722502;;;13.60234375;100
61740;BME280;47645;45.288;12.038;2023-05-03T03:34:37;1017.8456123498419;;;13.4748046875;100
61740;BME280;47645;45.288;12.038;2023-05-03T03:44:38;1017.9365658251492;;;13.5361328125;100
61740;BME280;47645;45.288;12.038;2023-05-03T03:54:40;1017.9944005780976;;;13.3576171875;100
61740;BME280;47645;45.288;12.038;2023-05-03T04:04:40;1018.0821935980056;;;13.3984375;100
61740;BME280;47645;45.288;12.038;2023-05-03T04:14:41;1018.2173582594737;;;13.403515625;100
61740;BME280;47645;45.288;12.038;2023-05-03T04:24:43;1018.3610504180161;;;13.490234375;100
61740;BME280;47645;45.288;12.038;2023-05-03T04:34:43;1018.4378467423039;;;13.403515625;100
61740;BME280;47645;45.288;12.038;2023-05-03T04:44:43;1018.5320060669327;;;13.423828125;100
61740;BME280;47645;45.288;12.038;2023-05-03T04:54:45;1018.6578123130739;;;13.520703125;100
61740;BME280;47645;45.288;12.038;2023-05-03T05:04:45;1018.7380115914648;;;13.6431640625;100
61740;BME280;47645;45.288;12.038;2023-05-03T05:14:46;1018.841349967089;;;13.724609375;100
61740;BME280;47645;45.288;12.038;2023-05-03T05:24:47;1018.9095711085589;;;13.821484375;100
61740;BME280;47645;45.288;12.038;2023-05-03T05:34:52;1019.0381805275465;;;13.9947265625;100
61740;BME280;47645;45.288;12.038;2023-05-03T05:44:48;1019.0946775830805;;;14.2138671875;100
61740;BME280;47645;45.288;12.038;2023-05-03T05:54:49;1019.1513488947229;;;14.453515625;100
61740;BME280;47645;45.288;12.038;2023-05-03T06:04:51;1019.2917007017246;;;14.759375;100
61740;BME280;47645;45.288;12.038;2023-05-03T06:14:51;1019.3927155800667;;;14.871484375;100
61740;BME280;47645;45.288;12.038;2023-05-03T06:24:54;1019.4372214529982;;;14.9326171875;100
61740;BME280;47645;45.288;12.038;2023-05-03T06:34:53;1019.616052367489;;;14.912109375;100
61740;BME280;47645;45.288;12.038;2023-05-03T06:44:53;1019.6394916549248;;;15.0498046875;96.88366725806647
61740;BME280;47645;45.288;12.038;2023-05-03T06:54:55;1019.6769975273289;;;15.437109375;100
61740;BME280;47645;45.288;12.038;2023-05-03T07:04:55;1019.6679942975101;;;15.9826171875;98.10975245822074
61740;BME280;47645;45.288;12.038;2023-05-03T07:14:57;1019.6430472916988;;;16.155859375;96.16694016771724
61740;BME280;47645;45.288;12.038;2023-05-03T07:24:59;1019.5859773313695;;;16.369921875;94.18461305462628
61740;BME280;47645;45.288;12.038;2023-05-03T07:34:58;1019.6203261691143;;;16.7419921875;90.54690141995829
61740;BME280;47645;45.288;12.038;2023-05-03T07:44:59;1019.608534559854;;;16.8287109375;91.43268531884195
61740;BME280;47645;45.288;12.038;2023-05-03T07:55:00;1019.7046520706697;;;16.86953125;87.80045039262075
61740;BME280;47645;45.288;12.038;2023-05-03T08:05:02;1019.7470470560256;;;17.323046875;86.29939054890161
61740;BME280;47645;45.288;12.038;2023-05-03T08:15:06;1019.6759819511648;;;17.6748046875;80.09424134996696
61740;BME280;47645;45.288;12.038;2023-05-03T08:25:05;1019.8161677374692;;;18.2916015625;77.54522890622825
61740;BME280;47645;45.288;12.038;2023-05-03T08:35:07;1019.971837209511;;;18.3986328125;75.69983346528907
61740;BME280;47645;45.288;12.038;2023-05-03T08:40:08;1020.0273276659723;;;18.60234375;73.70753761041173
61740;BME280;47645;45.288;12.038;2023-05-03T08:50:07;1020.0831597286488;;;19.305859375;70.53908122551861
61740;BME280;47645;45.288;12.038;2023-05-03T09:00:11;1020.0996160923501;;;19.43828125;67.58309587744488
61740;BME280;47645;45.288;12.038;2023-05-03T09:10:21;1020.1551350219913;;;20.2080078125;64.54414024649148
61740;BME280;47645;45.288;12.038;2023-05-03T09:20:09;1020.231371841573;;;20.345703125;63.754281980938515
61740;BME280;47645;45.288;12.038;2023-05-03T09:30:17;1020.1912872864689;;;20.6158203125;62.855651314864936
61740;BME280;47645;45.288;12.038;2023-05-03T09:40:13;1020.221901479876;;;20.6107421875;59.55018922038009
61740;BME280;47645;45.288;12.038;2023-05-03T09:50:11;1020.2356795114763;;;20.6107421875;58.378874199073714
61740;BME280;47645;45.288;12.038;2023-05-03T10:00:13;1020.0371274491422;;;21.7423828125;56.54585706623968
61740;BME280;47645;45.288;12.038;2023-05-03T10:10:13;1020.0546064933717;;;21.793359375;54.24290018996669
61740;BME280;47645;45.288;12.038;2023-05-03T10:20:21;1020.0261235309481;;;22.440625;55.93463121792729
61740;BME280;47645;45.288;12.038;2023-05-03T10:30:27;1019.9823981388954;;;22.9861328125;53.97569838765717
61740;BME280;47645;45.288;12.038;2023-05-03T10:40:18;1020.0560625560418;;;22.8943359375;50.18136511487047
61740;BME280;47645;45.288;12.038;2023-05-03T10:50:26;1020.0210015947615;;;22.8841796875;50.11758685165909
61740;BME280;47645;45.288;12.038;2023-05-03T11:00:26;1020.0007404186435;;;22.74140625;50.51177617579715
61740;BME280;47645;45.288;12.038;2023-05-03T11:10:21;1019.9258904465962;;;22.5017578125;54.71363552994727
61740;BME280;47645;45.288;12.038;2023-05-03T11:20:22;1019.9164657720046;;;21.915625;51.41143336783544
61740;BME280;47645;45.288;12.038;2023-05-03T11:30:23;1019.9139742615127;;;22.0482421875;55.38728352887788
61740;BME280;47645;45.288;12.038;2023-05-03T11:40:24;1019.8966976416133;;;21.7626953125;55.10197242991009
61740;BME280;47645;45.288;12.038;2023-05-03T11:50:41;1019.9388327179404;;;21.5333984375;52.250773198148266
61740;BME280;47645;45.288;12.038;2023-05-03T12:00:27;1019.8654742369222;;;21.997265625;54.50215587127921
61740;BME280;47645;45.288;12.038;2023-05-03T12:10:31;1019.8365071668354;;;22.0328125;53.13119996884273
61740;BME280;47645;45.288;12.038;2023-05-03T12:20:30;1019.7733999693198;;;22.251953125;52.614985161487034
61740;BME280;47645;45.288;12.038;2023-05-03T12:30:31;1019.7373143344873;;;22.0685546875;52.190947386936
61740;BME280;47645;45.288;12.038;2023-05-03T12:40:31;1019.6523396087323;;;22.6087890625;52.84894205858046
61740;BME280;47645;45.288;12.038;2023-05-03T12:50:32;1019.651061897453;;;23.9189453125;47.34618117805451
61740;BME280;47645;45.288;12.038;2023-05-03T13:00:33;1019.6413035873854;;;23.5162109375;46.9531098628014
61740;BME280;47645;45.288;12.038;2023-05-03T13:10:34;1019.544164756089;;;23.261328125;45.45538008695007
61740;BME280;47645;45.288;12.038;2023-05-03T13:20:36;1019.4641562759252;;;22.7158203125;46.79757106491793
61740;BME280;47645;45.288;12.038;2023-05-03T13:30:37;1019.3772728838907;;;23.2001953125;47.04091070508813
61740;BME280;47645;45.288;12.038;2023-05-03T13:40:38;1019.3779640232194;;;23.79140625;45.64620319490127
61740;BME280;47645;45.288;12.038;2023-05-03T13:50:40;1019.3536618130031;;;23.251171875;45.54192392023803
61740;BME280;47645;45.288;12.038;2023-05-03T14:00:41;1019.413497124068;;;23.7099609375;43.201502024273815
61740;BME280;47645;45.288;12.038;2023-05-03T14:10:42;1019.3442666094601;;;23.878125;44.13912608239162
61740;BME280;47645;45.288;12.038;2023-05-03T14:20:43;1019.3123694116584;;;23.546875;43.57024153187642
61740;BME280;47645;45.288;12.038;2023-05-03T14:30:45;1019.3621333803687;;;24.19921875;42.400087274739356
61740;BME280;47645;45.288;12.038;2023-05-03T14:40:46;1019.3385074933118;;;24.398046875;51.10314846681845
61740;BME280;47645;45.288;12.038;2023-05-03T14:50:47;1019.4647147841102;;;24.214453125;43.96811694961573
61740;BME280;47645;45.288;12.038;2023-05-03T15:00:49;1019.3721121524281;;;24.591796875;43.357158625270806
61740;BME280;47645;45.288;12.038;2023-05-03T15:10:52;1019.379964796969;;;24.698828125;45.15285451304571
61740;BME280;47645;45.288;12.038;2023-05-03T15:20:52;1019.3955280704736;;;25.1626953125;47.77571770742336
61740;BME280;47645;45.288;12.038;2023-05-03T15:30:58;1019.4288459165352;;;24.5;41.93217459665294
61740;BME280;47645;45.288;12.038;2023-05-03T15:40:55;1019.488319116462;;;24.62734375;43.571729600352725
61740;BME280;47645;45.288;12.038;2023-05-03T15:50:56;1019.5180808154921;;;23.7201171875;44.25897327898757
61740;BME280;47645;45.288;12.038;2023-05-03T16:00:58;1019.4603671855207;;;23.980078125;43.97794149191792
61740;BME280;47645;45.288;12.038;2023-05-03T16:10:59;1019.4168713691827;;;23.28671875;46.99043654967096
61740;BME280;47645;45.288;12.038;2023-05-03T16:21:00;1019.3781388832713;;;24.000390625;52.66294663079294
61740;BME280;47645;45.288;12.038;2023-05-03T16:31:03;1019.3009832264675;;;23.57734375;49.04840054958089
61740;BME280;47645;45.288;12.038;2023-05-03T16:41:03;1019.315975750543;;;23.5314453125;50.57569587770815
61740;BME280;47645;45.288;12.038;2023-05-03T16:51:04;1019.3046452369761;;;22.863671875;46.86295115203353
61740;BME280;47645;45.288;12.038;2023-05-03T17:01:07;1019.2828041549113;;;23.1796875;54.2865606006813
61740;BME280;47645;45.288;12.038;2023-05-03T17:11:10;1019.38392818993;;;22.5375;49.5863500358288
61740;BME280;47645;45.288;12.038;2023-05-03T17:21:09;1019.4404937237243;;;21.8443359375;50.68052172253599
61740;BME280;47645;45.288;12.038;2023-05-03T17:31:09;1019.5682128872488;;;21.29375;51.13760773449275
61740;BME280;47645;45.288;12.038;2023-05-03T17:41:11;1019.5574246956277;;;21.5486328125;62.45651077716809
61740;BME280;47645;45.288;12.038;2023-05-03T17:51:13;1019.5875578486425;;;20.6208984375;58.922059336785615
61740;BME280;47645;45.288;12.038;2023-05-03T18:01:17;1019.7372118852209;;;20.3048828125;65.14247303818314
61740;BME280;47645;45.288;12.038;2023-05-03T18:11:15;1019.776298449392;;;19.4892578125;62.410243620555725
61740;BME280;47645;45.288;12.038;2023-05-03T18:21:18;1019.860363384228;;;19.1681640625;63.84994833534419
61740;BME280;47645;45.288;12.038;2023-05-03T18:31:17;1019.9320788440822;;;18.9287109375;65.60912292540338
61740;BME280;47645;45.288;12.038;2023-05-03T18:41:19;1020.0293960532525;;;17.9755859375;66.25637036084395
61740;BME280;47645;45.288;12.038;2023-05-03T18:51:20;1020.0787370792808;;;18.17421875;76.82972306235412
61740;BME280;47645;45.288;12.038;2023-05-03T19:01:21;1020.19752275739;;;17.858203125;76.53636037053008
61740;BME280;47645;45.288;12.038;2023-05-03T19:11:22;1020.2849477810144;;;17.95;71.2762107884658
61740;BME280;47645;45.288;12.038;2023-05-03T19:21:23;1020.4858467141172;;;17.53203125;72.94776653360874
61740;BME280;47645;45.288;12.038;2023-05-03T19:31:24;1020.4088967223817;;;16.991796875;70.80023703204365
61740;BME280;47645;45.288;12.038;2023-05-03T19:41:25;1020.5123531121701;;;17.5421875;79.75976149193338
61740;BME280;47645;45.288;12.038;2023-05-03T19:51:27;1020.6345522003398;;;17.5015625;79.15277140886887
61740;BME280;47645;45.288;12.038;2023-05-03T20:01:28;1020.6928527435272;;;16.7470703125;74.84354810500564
61740;BME280;47645;45.288;12.038;2023-05-03T20:11:29;1020.8612207572024;;;16.9;80.11295874006224
61740;BME280;47645;45.288;12.038;2023-05-03T20:21:30;1020.8409024785915;;;16.8490234375;81.21545633297399
61740;BME280;47645;45.288;12.038;2023-05-03T20:31:31;1020.8835397152756;;;16.701171875;72.87286642982127
61740;BME280;47645;45.288;12.038;2023-05-03T20:41:32;1020.8911869587122;;;16.594140625;75.92841376914112
61740;BME280;47645;45.288;12.038;2023-05-03T20:51:33;1020.9294809060787;;;15.81953125;73.17647859696673
61740;BME280;47645;45.288;12.038;2023-05-03T21:01:37;1020.9243032236382;;;16.2068359375;78.5571977715057
61740;BME280;47645;45.288;12.038;2023-05-03T21:11:38;1021.0401030352529;;;15.9724609375;80.90275440539915
61740;BME280;47645;45.288;12.038;2023-05-03T21:21:37;1020.9837775150474;;;16.0232421875;81.60812397479373
61740;BME280;47645;45.288;12.038;2023-05-03T21:31:39;1021.0254154363383;;;15.717578125;76.43032297455574
61740;BME280;47645;45.288;12.038;2023-05-03T21:41:39;1021.0696789865037;;;15.12109375;76.21124825788323
61740;BME280;47645;45.288;12.038;2023-05-03T21:51:40;1021.0724385659325;;;15.1568359375;76.10719066735737
61740;BME280;47645;45.288;12.038;2023-05-03T22:01:41;1021.0684423355461;;;15.2384765625;78.33108451126513
61740;BME280;47645;45.288;12.038;2023-05-03T22:11:42;1021.0948595986438;;;14.9529296875;77.84437195081604
61740;BME280;47645;45.288;12.038;2023-05-03T22:21:43;1021.0203429299078;;;14.8205078125;77.71065362795484
61740;BME280;47645;45.288;12.038;2023-05-03T22:31:44;1020.8905012766953;;;14.7388671875;80.85369164476411
61740;BME280;47645;45.288;12.038;2023-05-03T22:41:45;1020.9460869597635;;;14.6419921875;79.03870564862093
61740;BME280;47645;45.288;12.038;2023-05-03T22:51:46;1021.068176998577;;;14.7796875;80.00566682603622
61740;BME280;47645;45.288;12.038;2023-05-03T23:01:48;1021.0850433552291;;;14.9224609375;79.96810211660862
61740;BME280;47645;45.288;12.038;2023-05-03T23:11:48;1021.2135149495136;;;14.376953125;81.62284054563145
61740;BME280;47645;45.288;12.038;2023-05-03T23:21:49;1021.1670517600515;;;14.2138671875;82.35620739063786
61740;BME280;47645;45.288;12.038;2023-05-03T23:31:50;1021.1054413987114;;;14.045703125;81.50209386285574
61740;BME280;47645;45.288;12.038;2023-05-03T23:41:51;1021.1417572649408;;;14.0865234375;82.38421101958895
61740;BME280;47645;45.288;12.038;2023-05-03T23:51:52;1021.182287823905;;;14.1169921875;80.13891221203312
